Meridian, GA (31319)

1:05 PM EDT on September 19, 2014 (GMT -0400)
Country Walk | Change Station
CLOSE
Current Station
Personal Weather Station
Location: Brunswick, GA
Elevation: 30 ft
Nearby Weather Stations

Elev 30 ft 31.27 °N, 81.48 °W | Updated 3 seconds ago

Partly Cloudy
Partly Cloudy
82.0 °F
Feels Like 88 °F
N
3.0
Wind Variable Wind from NE
Gusts 6.0 mph

Today
High -- | Low -- °F
--% Chance of Precip.
Yesterday
High -- | Low -- °F
Precip. -- in
7:12 AM 7:26 PM
Waning Crescent, 18% visible
Pressure 30.03 in
Visibility 10.0 miles
Clouds Scattered Clouds 3200 ft
Heat Index 88 °F
Dew Point 74 °F
Humidity 76%
Rainfall 0.04 in
Snow Depth Not available.
UV 2.7 out of 12
Pollen 7.40 out of 12
Air Quality Not available.
Flu Activity Not available.
METAR KBQK 191655Z AUTO 06008KT 10SM SCT032 29/20 A3003 RMK AO1

More Conditions Fewer Conditions

Pressure 30.03 in
Visibility 10.0 miles
Clouds Scattered Clouds 3200 ft
Heat Index 88 °F
Dew Point 74 °F
Humidity 76%
Rainfall 0.04 in
Snow Depth Not available.
UV 2.7 out of 12
Pollen 7.40 out of 12
Air Quality Not available.
Flu Activity Not available.
METAR KBQK 191655Z AUTO 06008KT 10SM SCT032 29/20 A3003 RMK AO1

More Conditions Fewer Conditions

10-Day Weather Forecast

Almanac

Astronomy

Sep. 19, 2014 Rise Set
Actual Time 7:12 AM EDT 7:26 PM EDT
Civil Twilight 6:47 AM EDT 7:50 PM EDT
Nautical Twilight 6:19 AM EDT 8:18 PM EDT
Astronomical Twilight 5:50 AM EDT 8:47 PM EDT
Moon 3:08 AM EDT 4:42 PM EDT
Length of Visible Light 13h 02m
Length of Day
12h 14m
Tomorrow will be 1m 55s shorter.
Waning Crescent, 18% of the Moon is Illuminated
Today
Waning Crescent
Sep 24
New
Oct 1
First Quarter
Oct 8
Full
Oct 15
Last Quarter

Today's Extremes

State Highs State Lows

Community

WunderPhotos

Upload Photos

1,754,655 photos uploaded!

Nearby

Snow Depth

Station Depth Elevation
No new snow has been reported.

Earthquake Activity

City Distance Mag. Time & Date
No recent earthquake activity has been reported nearby.
Minimum magnitude displayed is 2.5.

Coastal Water Temperatures

Place Temperature
No Stations Reporting

Nearby Weather Stations